sensor_id;sensor_type;location;lat;lon;timestamp;P1;durP1;ratioP1;P2;durP2;ratioP2
70126;SDS011;57491;42.694;23.314;2023-01-16T00:00:14;46.85;;;22.90;;
70126;SDS011;57491;42.694;23.314;2023-01-16T00:02:41;46.97;;;23.52;;
70126;SDS011;57491;42.694;23.314;2023-01-16T00:05:08;49.47;;;23.17;;
70126;SDS011;57491;42.694;23.314;2023-01-16T00:07:36;50.28;;;25.30;;
70126;SDS011;57491;42.694;23.314;2023-01-16T00:10:03;51.23;;;24.10;;
70126;SDS011;57491;42.694;23.314;2023-01-16T00:15:00;46.80;;;22.77;;
70126;SDS011;57491;42.694;23.314;2023-01-16T00:17:28;44.22;;;22.40;;
70126;SDS011;57491;42.694;23.314;2023-01-16T00:19:55;42.90;;;22.10;;
70126;SDS011;57491;42.694;23.314;2023-01-16T00:22:22;42.47;;;21.63;;
70126;SDS011;57491;42.694;23.314;2023-01-16T00:24:49;52.22;;;24.20;;
70126;SDS011;57491;42.694;23.314;2023-01-16T00:27:16;44.08;;;21.73;;
70126;SDS011;57491;42.694;23.314;2023-01-16T00:29:43;49.15;;;23.27;;
70126;SDS011;57491;42.694;23.314;2023-01-16T00:32:11;45.73;;;23.20;;
70126;SDS011;57491;42.694;23.314;2023-01-16T00:34:41;46.15;;;22.88;;
70126;SDS011;57491;42.694;23.314;2023-01-16T00:37:08;42.80;;;21.23;;
70126;SDS011;57491;42.694;23.314;2023-01-16T00:39:35;46.20;;;22.00;;
70126;SDS011;57491;42.694;23.314;2023-01-16T00:42:03;48.30;;;21.90;;
70126;SDS011;57491;42.694;23.314;2023-01-16T00:44:31;46.90;;;23.80;;
70126;SDS011;57491;42.694;23.314;2023-01-16T00:46:58;40.63;;;20.27;;
70126;SDS011;57491;42.694;23.314;2023-01-16T00:49:26;41.33;;;20.63;;
70126;SDS011;57491;42.694;23.314;2023-01-16T00:51:53;39.53;;;19.67;;
70126;SDS011;57491;42.694;23.314;2023-01-16T00:54:21;46.50;;;22.05;;
70126;SDS011;57491;42.694;23.314;2023-01-16T00:56:48;44.00;;;20.45;;
70126;SDS011;57491;42.694;23.314;2023-01-16T00:59:15;40.35;;;19.60;;
70126;SDS011;57491;42.694;23.314;2023-01-16T01:01:42;38.90;;;19.20;;
70126;SDS011;57491;42.694;23.314;2023-01-16T01:04:09;40.17;;;19.23;;
70126;SDS011;57491;42.694;23.314;2023-01-16T01:06:39;38.08;;;20.50;;
70126;SDS011;57491;42.694;23.314;2023-01-16T01:09:06;42.10;;;19.58;;
70126;SDS011;57491;42.694;23.314;2023-01-16T01:11:33;40.58;;;19.20;;
70126;SDS011;57491;42.694;23.314;2023-01-16T01:14:00;41.58;;;19.08;;
70126;SDS011;57491;42.694;23.314;2023-01-16T01:16:28;37.77;;;19.20;;
70126;SDS011;57491;42.694;23.314;2023-01-16T01:18:55;41.78;;;18.65;;
70126;SDS011;57491;42.694;23.314;2023-01-16T01:21:22;36.95;;;18.65;;
70126;SDS011;57491;42.694;23.314;2023-01-16T01:23:50;37.70;;;18.23;;
70126;SDS011;57491;42.694;23.314;2023-01-16T01:26:17;44.13;;;19.02;;
70126;SDS011;57491;42.694;23.314;2023-01-16T01:28:45;39.28;;;17.80;;
70126;SDS011;57491;42.694;23.314;2023-01-16T01:31:13;39.17;;;18.23;;
70126;SDS011;57491;42.694;23.314;2023-01-16T01:33:40;37.50;;;17.85;;
70126;SDS011;57491;42.694;23.314;2023-01-16T01:36:08;38.47;;;18.13;;
70126;SDS011;57491;42.694;23.314;2023-01-16T01:38:36;35.97;;;17.00;;
70126;SDS011;57491;42.694;23.314;2023-01-16T01:41:04;37.70;;;17.50;;
70126;SDS011;57491;42.694;23.314;2023-01-16T01:43:42;37.17;;;17.77;;
70126;SDS011;57491;42.694;23.314;2023-01-16T01:46:15;34.85;;;18.00;;
70126;SDS011;57491;42.694;23.314;2023-01-16T01:48:46;36.08;;;17.77;;
70126;SDS011;57491;42.694;23.314;2023-01-16T01:51:17;31.42;;;15.93;;
70126;SDS011;57491;42.694;23.314;2023-01-16T01:53:49;36.65;;;17.48;;
70126;SDS011;57491;42.694;23.314;2023-01-16T01:56:24;35.83;;;18.52;;
70126;SDS011;57491;42.694;23.314;2023-01-16T01:58:53;35.50;;;17.95;;
70126;SDS011;57491;42.694;23.314;2023-01-16T02:01:22;32.85;;;16.95;;
70126;SDS011;57491;42.694;23.314;2023-01-16T02:03:51;35.80;;;17.35;;
70126;SDS011;57491;42.694;23.314;2023-01-16T02:06:25;35.00;;;16.58;;
70126;SDS011;57491;42.694;23.314;2023-01-16T02:08:57;36.35;;;18.58;;
70126;SDS011;57491;42.694;23.314;2023-01-16T02:11:29;34.03;;;16.58;;
70126;SDS011;57491;42.694;23.314;2023-01-16T02:14:02;36.40;;;18.73;;
70126;SDS011;57491;42.694;23.314;2023-01-16T02:16:32;41.00;;;19.02;;
70126;SDS011;57491;42.694;23.314;2023-01-16T02:19:18;37.08;;;18.88;;
70126;SDS011;57491;42.694;23.314;2023-01-16T02:22:03;35.72;;;17.67;;
70126;SDS011;57491;42.694;23.314;2023-01-16T02:24:52;34.90;;;17.85;;
70126;SDS011;57491;42.694;23.314;2023-01-16T02:33:51;33.88;;;17.45;;
70126;SDS011;57491;42.694;23.314;2023-01-16T02:36:31;36.58;;;18.45;;
70126;SDS011;57491;42.694;23.314;2023-01-16T02:39:10;31.27;;;16.52;;
70126;SDS011;57491;42.694;23.314;2023-01-16T02:41:45;38.43;;;18.70;;
70126;SDS011;57491;42.694;23.314;2023-01-16T02:44:18;42.97;;;19.27;;
70126;SDS011;57491;42.694;23.314;2023-01-16T02:46:56;33.30;;;17.65;;
70126;SDS011;57491;42.694;23.314;2023-01-16T02:49:33;37.10;;;17.95;;
70126;SDS011;57491;42.694;23.314;2023-01-16T02:52:07;37.75;;;17.70;;
70126;SDS011;57491;42.694;23.314;2023-01-16T02:54:40;40.08;;;18.17;;
70126;SDS011;57491;42.694;23.314;2023-01-16T02:57:12;39.67;;;18.63;;
70126;SDS011;57491;42.694;23.314;2023-01-16T02:59:43;40.58;;;18.80;;
70126;SDS011;57491;42.694;23.314;2023-01-16T03:02:11;40.58;;;18.88;;
70126;SDS011;57491;42.694;23.314;2023-01-16T03:04:46;36.58;;;18.17;;
70126;SDS011;57491;42.694;23.314;2023-01-16T03:07:20;42.08;;;19.85;;
70126;SDS011;57491;42.694;23.314;2023-01-16T03:09:57;43.30;;;18.40;;
70126;SDS011;57491;42.694;23.314;2023-01-16T03:12:36;45.40;;;20.05;;
70126;SDS011;57491;42.694;23.314;2023-01-16T03:15:17;40.88;;;18.48;;
70126;SDS011;57491;42.694;23.314;2023-01-16T03:17:53;41.72;;;18.45;;
70126;SDS011;57491;42.694;23.314;2023-01-16T03:20:33;49.08;;;19.13;;
70126;SDS011;57491;42.694;23.314;2023-01-16T03:23:14;41.80;;;17.50;;
70126;SDS011;57491;42.694;23.314;2023-01-16T03:25:53;45.10;;;18.98;;
70126;SDS011;57491;42.694;23.314;2023-01-16T03:28:27;41.05;;;18.25;;
70126;SDS011;57491;42.694;23.314;2023-01-16T03:31:00;45.30;;;20.20;;
70126;SDS011;57491;42.694;23.314;2023-01-16T03:33:36;42.78;;;18.67;;
70126;SDS011;57491;42.694;23.314;2023-01-16T03:36:12;51.03;;;19.27;;
70126;SDS011;57491;42.694;23.314;2023-01-16T03:38:47;42.92;;;19.33;;
70126;SDS011;57491;42.694;23.314;2023-01-16T03:41:18;43.83;;;19.17;;
70126;SDS011;57491;42.694;23.314;2023-01-16T03:43:49;49.28;;;21.02;;
70126;SDS011;57491;42.694;23.314;2023-01-16T03:46:23;47.58;;;19.40;;
70126;SDS011;57491;42.694;23.314;2023-01-16T03:48:54;46.90;;;19.13;;
70126;SDS011;57491;42.694;23.314;2023-01-16T03:51:26;47.85;;;18.30;;
70126;SDS011;57491;42.694;23.314;2023-01-16T03:53:57;42.67;;;19.15;;
70126;SDS011;57491;42.694;23.314;2023-01-16T03:56:29;46.38;;;20.42;;
70126;SDS011;57491;42.694;23.314;2023-01-16T03:59:00;44.95;;;18.80;;
70126;SDS011;57491;42.694;23.314;2023-01-16T04:01:32;45.15;;;19.98;;
70126;SDS011;57491;42.694;23.314;2023-01-16T04:04:05;42.63;;;18.08;;
70126;SDS011;57491;42.694;23.314;2023-01-16T04:06:37;42.50;;;18.08;;
70126;SDS011;57491;42.694;23.314;2023-01-16T04:09:13;40.35;;;18.25;;
70126;SDS011;57491;42.694;23.314;2023-01-16T04:11:45;48.22;;;19.40;;
70126;SDS011;57491;42.694;23.314;2023-01-16T04:14:15;45.15;;;17.30;;
70126;SDS011;57491;42.694;23.314;2023-01-16T04:16:47;52.28;;;21.17;;
70126;SDS011;57491;42.694;23.314;2023-01-16T04:19:16;46.25;;;18.95;;
70126;SDS011;57491;42.694;23.314;2023-01-16T04:21:47;44.88;;;20.02;;
70126;SDS011;57491;42.694;23.314;2023-01-16T04:24:14;50.70;;;19.90;;
70126;SDS011;57491;42.694;23.314;2023-01-16T04:26:42;46.72;;;20.15;;
70126;SDS011;57491;42.694;23.314;2023-01-16T04:29:09;51.13;;;19.70;;
70126;SDS011;57491;42.694;23.314;2023-01-16T04:31:36;52.00;;;20.10;;
70126;SDS011;57491;42.694;23.314;2023-01-16T04:34:03;50.88;;;21.45;;
70126;SDS011;57491;42.694;23.314;2023-01-16T04:36:30;60.50;;;23.42;;
70126;SDS011;57491;42.694;23.314;2023-01-16T04:38:59;51.35;;;20.38;;
70126;SDS011;57491;42.694;23.314;2023-01-16T04:41:26;56.65;;;21.25;;
70126;SDS011;57491;42.694;23.314;2023-01-16T04:44:02;52.40;;;21.52;;
70126;SDS011;57491;42.694;23.314;2023-01-16T04:46:30;64.43;;;22.83;;
70126;SDS011;57491;42.694;23.314;2023-01-16T04:48:58;65.07;;;20.95;;
70126;SDS011;57491;42.694;23.314;2023-01-16T04:51:25;68.97;;;21.67;;
70126;SDS011;57491;42.694;23.314;2023-01-16T04:53:54;59.75;;;20.90;;
70126;SDS011;57491;42.694;23.314;2023-01-16T04:56:22;67.85;;;22.75;;
70126;SDS011;57491;42.694;23.314;2023-01-16T04:58:49;84.20;;;23.15;;
70126;SDS011;57491;42.694;23.314;2023-01-16T05:01:18;66.15;;;21.30;;
70126;SDS011;57491;42.694;23.314;2023-01-16T05:03:47;66.47;;;22.77;;
70126;SDS011;57491;42.694;23.314;2023-01-16T05:06:14;59.88;;;22.98;;
70126;SDS011;57491;42.694;23.314;2023-01-16T05:08:42;48.40;;;21.30;;
70126;SDS011;57491;42.694;23.314;2023-01-16T05:11:09;60.63;;;20.27;;
70126;SDS011;57491;42.694;23.314;2023-01-16T05:13:37;46.90;;;19.13;;
70126;SDS011;57491;42.694;23.314;2023-01-16T05:16:05;48.55;;;18.98;;
70126;SDS011;57491;42.694;23.314;2023-01-16T05:18:32;39.20;;;16.88;;
70126;SDS011;57491;42.694;23.314;2023-01-16T05:20:59;45.95;;;18.50;;
70126;SDS011;57491;42.694;23.314;2023-01-16T05:23:27;55.17;;;19.60;;
70126;SDS011;57491;42.694;23.314;2023-01-16T05:25:54;65.75;;;20.17;;
70126;SDS011;57491;42.694;23.314;2023-01-16T05:28:21;63.38;;;22.52;;
70126;SDS011;57491;42.694;23.314;2023-01-16T05:30:49;57.70;;;22.95;;
70126;SDS011;57491;42.694;23.314;2023-01-16T05:33:16;56.83;;;22.27;;
70126;SDS011;57491;42.694;23.314;2023-01-16T05:35:44;56.22;;;20.70;;
70126;SDS011;57491;42.694;23.314;2023-01-16T05:38:11;67.97;;;22.38;;
70126;SDS011;57491;42.694;23.314;2023-01-16T05:40:39;72.97;;;21.13;;
70126;SDS011;57491;42.694;23.314;2023-01-16T05:43:06;69.90;;;21.60;;
70126;SDS011;57491;42.694;23.314;2023-01-16T05:45:33;53.00;;;19.65;;
70126;SDS011;57491;42.694;23.314;2023-01-16T05:48:01;56.70;;;20.65;;
70126;SDS011;57491;42.694;23.314;2023-01-16T05:50:28;59.15;;;21.73;;
70126;SDS011;57491;42.694;23.314;2023-01-16T05:52:56;59.33;;;20.13;;
70126;SDS011;57491;42.694;23.314;2023-01-16T05:55:23;55.20;;;22.00;;
70126;SDS011;57491;42.694;23.314;2023-01-16T05:57:50;55.45;;;21.88;;
70126;SDS011;57491;42.694;23.314;2023-01-16T06:00:18;53.13;;;21.50;;
70126;SDS011;57491;42.694;23.314;2023-01-16T06:02:46;54.85;;;22.65;;
70126;SDS011;57491;42.694;23.314;2023-01-16T06:05:14;61.70;;;23.08;;
70126;SDS011;57491;42.694;23.314;2023-01-16T06:07:41;61.00;;;23.25;;
70126;SDS011;57491;42.694;23.314;2023-01-16T06:10:09;59.80;;;23.02;;
70126;SDS011;57491;42.694;23.314;2023-01-16T06:12:36;56.25;;;22.17;;
70126;SDS011;57491;42.694;23.314;2023-01-16T06:15:04;61.97;;;22.65;;
70126;SDS011;57491;42.694;23.314;2023-01-16T06:17:31;56.25;;;21.45;;
70126;SDS011;57491;42.694;23.314;2023-01-16T06:19:58;66.85;;;22.45;;
70126;SDS011;57491;42.694;23.314;2023-01-16T06:22:27;74.18;;;22.10;;
70126;SDS011;57491;42.694;23.314;2023-01-16T06:24:54;56.33;;;23.63;;
70126;SDS011;57491;42.694;23.314;2023-01-16T06:27:21;57.95;;;24.83;;
70126;SDS011;57491;42.694;23.314;2023-01-16T06:29:48;53.65;;;23.70;;
70126;SDS011;57491;42.694;23.314;2023-01-16T06:32:15;54.20;;;21.73;;
70126;SDS011;57491;42.694;23.314;2023-01-16T06:34:43;50.55;;;19.83;;
70126;SDS011;57491;42.694;23.314;2023-01-16T06:37:10;44.38;;;19.67;;
70126;SDS011;57491;42.694;23.314;2023-01-16T06:39:40;41.45;;;21.75;;
70126;SDS011;57491;42.694;23.314;2023-01-16T06:42:07;53.60;;;22.40;;
70126;SDS011;57491;42.694;23.314;2023-01-16T06:44:34;55.15;;;22.65;;
70126;SDS011;57491;42.694;23.314;2023-01-16T06:47:02;56.35;;;23.95;;
70126;SDS011;57491;42.694;23.314;2023-01-16T06:49:29;48.42;;;21.23;;
70126;SDS011;57491;42.694;23.314;2023-01-16T06:51:56;47.67;;;20.90;;
70126;SDS011;57491;42.694;23.314;2023-01-16T06:54:25;46.50;;;20.50;;
70126;SDS011;57491;42.694;23.314;2023-01-16T06:56:55;50.67;;;20.90;;
70126;SDS011;57491;42.694;23.314;2023-01-16T06:59:22;48.05;;;21.65;;
70126;SDS011;57491;42.694;23.314;2023-01-16T07:01:49;45.63;;;20.70;;
70126;SDS011;57491;42.694;23.314;2023-01-16T07:04:16;49.90;;;21.20;;
70126;SDS011;57491;42.694;23.314;2023-01-16T07:06:43;50.33;;;23.97;;
70126;SDS011;57491;42.694;23.314;2023-01-16T07:09:11;49.45;;;20.70;;
70126;SDS011;57491;42.694;23.314;2023-01-16T07:11:38;44.80;;;21.58;;
70126;SDS011;57491;42.694;23.314;2023-01-16T07:14:07;47.50;;;22.10;;
70126;SDS011;57491;42.694;23.314;2023-01-16T07:16:52;49.72;;;21.90;;
70126;SDS011;57491;42.694;23.314;2023-01-16T07:19:36;54.20;;;22.50;;
70126;SDS011;57491;42.694;23.314;2023-01-16T07:22:20;54.05;;;22.67;;
70126;SDS011;57491;42.694;23.314;2023-01-16T07:25:05;53.75;;;24.30;;
70126;SDS011;57491;42.694;23.314;2023-01-16T07:27:37;45.20;;;21.75;;
70126;SDS011;57491;42.694;23.314;2023-01-16T07:30:07;51.70;;;22.98;;
70126;SDS011;57491;42.694;23.314;2023-01-16T07:32:35;51.90;;;23.45;;
70126;SDS011;57491;42.694;23.314;2023-01-16T07:35:03;58.03;;;23.92;;
70126;SDS011;57491;42.694;23.314;2023-01-16T07:37:31;48.55;;;22.48;;
70126;SDS011;57491;42.694;23.314;2023-01-16T07:39:58;53.95;;;25.58;;
70126;SDS011;57491;42.694;23.314;2023-01-16T07:42:25;58.65;;;24.63;;
70126;SDS011;57491;42.694;23.314;2023-01-16T07:44:52;55.25;;;25.85;;
70126;SDS011;57491;42.694;23.314;2023-01-16T07:47:21;53.22;;;24.30;;
70126;SDS011;57491;42.694;23.314;2023-01-16T07:49:48;67.90;;;30.85;;
70126;SDS011;57491;42.694;23.314;2023-01-16T07:52:15;55.72;;;24.00;;
70126;SDS011;57491;42.694;23.314;2023-01-16T07:54:43;50.53;;;22.77;;
70126;SDS011;57491;42.694;23.314;2023-01-16T07:57:10;60.72;;;26.30;;
70126;SDS011;57491;42.694;23.314;2023-01-16T07:59:38;57.20;;;24.40;;
70126;SDS011;57491;42.694;23.314;2023-01-16T08:02:05;54.78;;;23.58;;
70126;SDS011;57491;42.694;23.314;2023-01-16T08:04:33;57.72;;;27.52;;
70126;SDS011;57491;42.694;23.314;2023-01-16T08:07:00;51.67;;;25.40;;
70126;SDS011;57491;42.694;23.314;2023-01-16T08:09:27;58.05;;;28.20;;
70126;SDS011;57491;42.694;23.314;2023-01-16T08:11:55;60.78;;;28.05;;
70126;SDS011;57491;42.694;23.314;2023-01-16T08:14:22;59.10;;;29.60;;
70126;SDS011;57491;42.694;23.314;2023-01-16T08:16:49;59.63;;;28.70;;
70126;SDS011;57491;42.694;23.314;2023-01-16T08:19:16;60.95;;;29.85;;
70126;SDS011;57491;42.694;23.314;2023-01-16T08:21:45;60.53;;;29.75;;
70126;SDS011;57491;42.694;23.314;2023-01-16T08:24:12;60.97;;;28.10;;
70126;SDS011;57491;42.694;23.314;2023-01-16T08:29:07;60.95;;;28.60;;
70126;SDS011;57491;42.694;23.314;2023-01-16T08:31:35;65.13;;;29.85;;
70126;SDS011;57491;42.694;23.314;2023-01-16T08:34:02;62.75;;;29.08;;
70126;SDS011;57491;42.694;23.314;2023-01-16T08:36:29;66.25;;;30.80;;
70126;SDS011;57491;42.694;23.314;2023-01-16T08:38:58;65.53;;;30.50;;
70126;SDS011;57491;42.694;23.314;2023-01-16T08:41:25;69.28;;;30.60;;
70126;SDS011;57491;42.694;23.314;2023-01-16T08:44:09;68.35;;;31.70;;
70126;SDS011;57491;42.694;23.314;2023-01-16T08:46:55;70.70;;;31.90;;
70126;SDS011;57491;42.694;23.314;2023-01-16T08:49:42;71.63;;;33.55;;
70126;SDS011;57491;42.694;23.314;2023-01-16T08:52:28;69.03;;;32.28;;
70126;SDS011;57491;42.694;23.314;2023-01-16T08:54:57;83.05;;;34.25;;
70126;SDS011;57491;42.694;23.314;2023-01-16T08:57:25;74.95;;;32.10;;
70126;SDS011;57491;42.694;23.314;2023-01-16T09:02:19;69.65;;;31.92;;
70126;SDS011;57491;42.694;23.314;2023-01-16T09:04:47;71.35;;;31.58;;
70126;SDS011;57491;42.694;23.314;2023-01-16T09:07:14;72.43;;;33.22;;
70126;SDS011;57491;42.694;23.314;2023-01-16T09:09:41;67.43;;;33.05;;
70126;SDS011;57491;42.694;23.314;2023-01-16T09:12:10;66.63;;;31.80;;
70126;SDS011;57491;42.694;23.314;2023-01-16T09:14:56;72.25;;;31.90;;
70126;SDS011;57491;42.694;23.314;2023-01-16T09:17:24;61.55;;;29.10;;
70126;SDS011;57491;42.694;23.314;2023-01-16T09:19:52;60.47;;;29.08;;
70126;SDS011;57491;42.694;23.314;2023-01-16T09:22:19;59.90;;;29.43;;
70126;SDS011;57491;42.694;23.314;2023-01-16T09:24:46;73.40;;;30.75;;
70126;SDS011;57491;42.694;23.314;2023-01-16T09:27:15;60.30;;;29.65;;
70126;SDS011;57491;42.694;23.314;2023-01-16T09:29:43;57.88;;;27.98;;
70126;SDS011;57491;42.694;23.314;2023-01-16T09:32:11;56.85;;;28.65;;
70126;SDS011;57491;42.694;23.314;2023-01-16T09:34:38;61.05;;;28.95;;
70126;SDS011;57491;42.694;23.314;2023-01-16T09:39:33;57.92;;;26.33;;
70126;SDS011;57491;42.694;23.314;2023-01-16T09:45:14;61.00;;;23.83;;
70126;SDS011;57491;42.694;23.314;2023-01-16T09:47:45;59.03;;;24.92;;
70126;SDS011;57491;42.694;23.314;2023-01-16T09:50:17;45.42;;;22.88;;
70126;SDS011;57491;42.694;23.314;2023-01-16T09:52:51;32.63;;;17.90;;
70126;SDS011;57491;42.694;23.314;2023-01-16T09:55:37;35.88;;;18.20;;
70126;SDS011;57491;42.694;23.314;2023-01-16T09:58:26;34.50;;;18.33;;
70126;SDS011;57491;42.694;23.314;2023-01-16T10:01:04;35.17;;;18.08;;
70126;SDS011;57491;42.694;23.314;2023-01-16T10:03:33;32.25;;;17.45;;
70126;SDS011;57491;42.694;23.314;2023-01-16T10:06:10;35.97;;;18.65;;
70126;SDS011;57491;42.694;23.314;2023-01-16T10:08:45;36.00;;;20.35;;
70126;SDS011;57491;42.694;23.314;2023-01-16T10:11:22;35.17;;;19.58;;
70126;SDS011;57491;42.694;23.314;2023-01-16T10:14:10;36.63;;;19.35;;
70126;SDS011;57491;42.694;23.314;2023-01-16T10:16:57;43.85;;;20.30;;
70126;SDS011;57491;42.694;23.314;2023-01-16T10:19:36;40.85;;;19.40;;
70126;SDS011;57491;42.694;23.314;2023-01-16T10:22:17;40.00;;;22.58;;
70126;SDS011;57491;42.694;23.314;2023-01-16T10:24:59;41.10;;;22.02;;
70126;SDS011;57491;42.694;23.314;2023-01-16T10:27:34;40.05;;;20.33;;
70126;SDS011;57491;42.694;23.314;2023-01-16T10:32:43;39.47;;;20.08;;
70126;SDS011;57491;42.694;23.314;2023-01-16T10:35:19;35.50;;;19.90;;
70126;SDS011;57491;42.694;23.314;2023-01-16T10:37:49;32.55;;;18.02;;
70126;SDS011;57491;42.694;23.314;2023-01-16T10:40:18;32.58;;;17.48;;
70126;SDS011;57491;42.694;23.314;2023-01-16T10:42:49;32.70;;;18.55;;
70126;SDS011;57491;42.694;23.314;2023-01-16T10:45:42;39.03;;;21.55;;
70126;SDS011;57491;42.694;23.314;2023-01-16T10:51:39;34.85;;;21.30;;
70126;SDS011;57491;42.694;23.314;2023-01-16T10:54:07;33.75;;;19.60;;
70126;SDS011;57491;42.694;23.314;2023-01-16T10:56:34;35.70;;;20.33;;
70126;SDS011;57491;42.694;23.314;2023-01-16T10:59:02;37.88;;;20.55;;
70126;SDS011;57491;42.694;23.314;2023-01-16T11:01:32;38.10;;;21.70;;
70126;SDS011;57491;42.694;23.314;2023-01-16T11:04:01;38.53;;;22.60;;
70126;SDS011;57491;42.694;23.314;2023-01-16T11:06:32;39.55;;;19.77;;
70126;SDS011;57491;42.694;23.314;2023-01-16T11:09:02;30.23;;;17.55;;
70126;SDS011;57491;42.694;23.314;2023-01-16T11:11:39;35.83;;;20.88;;
70126;SDS011;57491;42.694;23.314;2023-01-16T11:14:24;27.67;;;17.08;;
70126;SDS011;57491;42.694;23.314;2023-01-16T11:17:22;27.45;;;15.82;;
70126;SDS011;57491;42.694;23.314;2023-01-16T11:20:09;28.80;;;18.45;;
70126;SDS011;57491;42.694;23.314;2023-01-16T11:22:40;39.70;;;22.27;;
70126;SDS011;57491;42.694;23.314;2023-01-16T11:25:12;33.92;;;20.73;;
70126;SDS011;57491;42.694;23.314;2023-01-16T11:27:43;33.95;;;21.45;;
70126;SDS011;57491;42.694;23.314;2023-01-16T11:30:15;29.83;;;19.92;;
70126;SDS011;57491;42.694;23.314;2023-01-16T11:32:47;29.95;;;19.85;;
70126;SDS011;57491;42.694;23.314;2023-01-16T11:35:15;27.63;;;19.35;;
70126;SDS011;57491;42.694;23.314;2023-01-16T11:37:44;35.58;;;22.38;;
70126;SDS011;57491;42.694;23.314;2023-01-16T11:40:17;28.88;;;19.83;;
70126;SDS011;57491;42.694;23.314;2023-01-16T11:42:51;25.48;;;17.55;;
70126;SDS011;57491;42.694;23.314;2023-01-16T11:45:39;23.80;;;16.75;;
70126;SDS011;57491;42.694;23.314;2023-01-16T11:48:28;32.80;;;20.63;;
70126;SDS011;57491;42.694;23.314;2023-01-16T11:51:00;25.55;;;18.40;;
70126;SDS011;57491;42.694;23.314;2023-01-16T11:53:29;26.88;;;19.85;;
70126;SDS011;57491;42.694;23.314;2023-01-16T11:56:02;31.58;;;21.33;;
70126;SDS011;57491;42.694;23.314;2023-01-16T11:58:44;27.33;;;18.10;;
70126;SDS011;57491;42.694;23.314;2023-01-16T12:03:56;29.45;;;19.08;;
70126;SDS011;57491;42.694;23.314;2023-01-16T12:06:37;35.25;;;19.67;;
70126;SDS011;57491;42.694;23.314;2023-01-16T12:09:19;24.90;;;17.30;;
70126;SDS011;57491;42.694;23.314;2023-01-16T12:12:00;25.83;;;17.13;;
70126;SDS011;57491;42.694;23.314;2023-01-16T12:14:51;23.90;;;15.75;;
70126;SDS011;57491;42.694;23.314;2023-01-16T12:17:22;27.05;;;16.35;;
70126;SDS011;57491;42.694;23.314;2023-01-16T12:20:13;27.58;;;16.10;;
70126;SDS011;57491;42.694;23.314;2023-01-16T12:23:01;24.98;;;16.00;;
70126;SDS011;57491;42.694;23.314;2023-01-16T12:25:53;23.75;;;14.95;;
70126;SDS011;57491;42.694;23.314;2023-01-16T12:32:22;27.08;;;15.80;;
70126;SDS011;57491;42.694;23.314;2023-01-16T12:35:15;24.17;;;13.93;;
70126;SDS011;57491;42.694;23.314;2023-01-16T12:38:07;24.98;;;14.40;;
70126;SDS011;57491;42.694;23.314;2023-01-16T12:40:42;23.27;;;14.35;;
70126;SDS011;57491;42.694;23.314;2023-01-16T12:43:42;22.65;;;14.05;;
70126;SDS011;57491;42.694;23.314;2023-01-16T12:46:17;25.95;;;14.23;;
70126;SDS011;57491;42.694;23.314;2023-01-16T12:48:55;24.07;;;14.13;;
70126;SDS011;57491;42.694;23.314;2023-01-16T12:54:33;23.58;;;12.05;;
70126;SDS011;57491;42.694;23.314;2023-01-16T13:03:44;21.55;;;12.00;;
70126;SDS011;57491;42.694;23.314;2023-01-16T13:06:20;25.75;;;13.95;;
70126;SDS011;57491;42.694;23.314;2023-01-16T13:09:02;23.42;;;13.13;;
70126;SDS011;57491;42.694;23.314;2023-01-16T13:11:36;22.92;;;13.05;;
70126;SDS011;57491;42.694;23.314;2023-01-16T13:14:35;31.35;;;14.63;;
70126;SDS011;57491;42.694;23.314;2023-01-16T13:17:05;22.42;;;13.20;;
70126;SDS011;57491;42.694;23.314;2023-01-16T13:19:37;22.20;;;12.80;;
70126;SDS011;57491;42.694;23.314;2023-01-16T13:22:10;17.75;;;10.88;;
70126;SDS011;57491;42.694;23.314;2023-01-16T13:24:48;25.02;;;13.27;;
70126;SDS011;57491;42.694;23.314;2023-01-16T13:27:22;26.30;;;15.30;;
70126;SDS011;57491;42.694;23.314;2023-01-16T13:30:03;24.23;;;12.77;;
70126;SDS011;57491;42.694;23.314;2023-01-16T13:32:36;27.65;;;14.30;;
70126;SDS011;57491;42.694;23.314;2023-01-16T13:35:08;25.70;;;14.00;;
70126;SDS011;57491;42.694;23.314;2023-01-16T13:37:45;25.98;;;14.05;;
70126;SDS011;57491;42.694;23.314;2023-01-16T13:43:20;24.33;;;12.23;;
70126;SDS011;57491;42.694;23.314;2023-01-16T13:46:09;21.90;;;12.25;;
70126;SDS011;57491;42.694;23.314;2023-01-16T13:48:37;20.02;;;11.60;;
70126;SDS011;57491;42.694;23.314;2023-01-16T13:51:06;21.30;;;12.75;;
70126;SDS011;57491;42.694;23.314;2023-01-16T13:53:39;25.05;;;12.30;;
70126;SDS011;57491;42.694;23.314;2023-01-16T13:56:10;27.48;;;13.05;;
70126;SDS011;57491;42.694;23.314;2023-01-16T13:58:41;21.08;;;11.82;;
70126;SDS011;57491;42.694;23.314;2023-01-16T14:01:28;22.35;;;12.57;;
70126;SDS011;57491;42.694;23.314;2023-01-16T14:04:11;24.67;;;13.50;;
70126;SDS011;57491;42.694;23.314;2023-01-16T14:06:52;24.45;;;12.90;;
70126;SDS011;57491;42.694;23.314;2023-01-16T14:15:43;29.08;;;14.18;;
70126;SDS011;57491;42.694;23.314;2023-01-16T14:18:35;28.88;;;13.07;;
70126;SDS011;57491;42.694;23.314;2023-01-16T14:21:04;24.65;;;13.02;;
70126;SDS011;57491;42.694;23.314;2023-01-16T14:23:39;30.52;;;14.52;;
70126;SDS011;57491;42.694;23.314;2023-01-16T14:29:20;21.20;;;12.43;;
70126;SDS011;57491;42.694;23.314;2023-01-16T14:31:53;24.63;;;13.10;;
70126;SDS011;57491;42.694;23.314;2023-01-16T14:34:24;25.70;;;12.68;;
70126;SDS011;57491;42.694;23.314;2023-01-16T14:36:54;21.65;;;11.52;;
70126;SDS011;57491;42.694;23.314;2023-01-16T14:39:33;23.73;;;12.13;;
70126;SDS011;57491;42.694;23.314;2023-01-16T14:42:03;23.63;;;12.55;;
70126;SDS011;57491;42.694;23.314;2023-01-16T14:44:59;26.98;;;13.45;;
70126;SDS011;57491;42.694;23.314;2023-01-16T14:48:04;24.20;;;13.55;;
70126;SDS011;57491;42.694;23.314;2023-01-16T14:50:55;20.48;;;11.40;;
70126;SDS011;57491;42.694;23.314;2023-01-16T14:53:43;25.73;;;12.50;;
70126;SDS011;57491;42.694;23.314;2023-01-16T14:56:30;27.75;;;14.48;;
70126;SDS011;57491;42.694;23.314;2023-01-16T14:59:03;26.40;;;13.32;;
70126;SDS011;57491;42.694;23.314;2023-01-16T15:01:34;26.20;;;12.88;;
70126;SDS011;57491;42.694;23.314;2023-01-16T15:04:23;25.15;;;13.57;;
70126;SDS011;57491;42.694;23.314;2023-01-16T15:06:57;28.15;;;14.25;;
70126;SDS011;57491;42.694;23.314;2023-01-16T15:09:28;23.98;;;12.55;;
70126;SDS011;57491;42.694;23.314;2023-01-16T15:11:57;25.45;;;13.55;;
70126;SDS011;57491;42.694;23.314;2023-01-16T15:14:28;28.73;;;14.02;;
70126;SDS011;57491;42.694;23.314;2023-01-16T15:16:59;28.05;;;14.52;;
70126;SDS011;57491;42.694;23.314;2023-01-16T15:20:00;25.38;;;13.70;;
70126;SDS011;57491;42.694;23.314;2023-01-16T15:22:52;24.23;;;12.60;;
70126;SDS011;57491;42.694;23.314;2023-01-16T15:25:31;29.80;;;15.13;;
70126;SDS011;57491;42.694;23.314;2023-01-16T15:28:08;24.60;;;12.93;;
70126;SDS011;57491;42.694;23.314;2023-01-16T15:30:42;24.40;;;13.80;;
70126;SDS011;57491;42.694;23.314;2023-01-16T15:33:22;29.05;;;13.68;;